Time;durP1;ratioP1;P1;durP2;ratioP2;P2;SDS_P1;SDS_P2;PMS_P1;PMS_P2;Temp;Humidity;BMP_temperature;BMP_pressure;BME280_temperature;BME280_humidity;BME280_pressure;Samples;Min_cycle;Max_cycle;Signal;HPM_P1;HPM_P2
2022/04/26 03:37:57;;;;;;;51.33;29.90;;;9.50;99.90;;;;;;5202661;28;20049;-71
2022/04/26 03:40:29;;;;;;;52.92;31.50;;;9.50;99.90;;;;;;5194918;28;20642;-72
2022/04/26 03:43:02;;;;;;;54.83;30.45;;;9.40;99.90;;;;;;5211445;28;22135;-72
2022/04/26 03:45:35;;;;;;;53.90;31.42;;;9.40;99.90;;;;;;5211095;28;20530;-72
2022/04/26 03:48:07;;;;;;;55.42;30.58;;;9.40;99.90;;;;;;5219760;28;20041;-73
2022/04/26 03:50:40;;;;;;;61.92;34.42;;;9.40;99.90;;;;;;5208033;28;20055;-72
2022/04/26 03:53:12;;;;;;;58.78;32.47;;;9.40;99.90;;;;;;5205073;28;20049;-72
2022/04/26 03:55:45;;;;;;;56.17;31.08;;;9.30;99.90;;;;;;5215683;28;20041;-72
2022/04/26 03:58:18;;;;;;;66.93;35.28;;;9.30;99.90;;;;;;5216870;28;20064;-73
2022/04/26 04:00:51;;;;;;;53.92;31.92;;;9.30;99.90;;;;;;5214766;28;20377;-73
2022/04/26 04:03:23;;;;;;;52.13;30.73;;;9.40;99.90;;;;;;5211308;28;20642;-71
2022/04/26 04:05:55;;;;;;;75.90;36.13;;;9.40;99.90;;;;;;5213764;28;20041;-73
2022/04/26 04:08:28;;;;;;;55.53;31.08;;;9.40;99.90;;;;;;5214769;28;20659;-72
2022/04/26 04:11:00;;;;;;;52.60;30.30;;;9.40;99.90;;;;;;5214977;28;20049;-72
2022/04/26 04:13:33;;;;;;;72.88;36.05;;;9.40;99.90;;;;;;5210030;28;20049;-73
2022/04/26 04:16:05;;;;;;;50.45;29.05;;;9.40;99.90;;;;;;5210753;28;20037;-73
2022/04/26 04:21:29;;;;;;;63.65;33.50;;;9.40;99.90;;;;;;5205322;28;20520;-73
2022/04/26 04:24:01;;;;;;;48.00;27.95;;;9.50;99.90;;;;;;5213237;28;20056;-73
2022/04/26 04:26:34;;;;;;;56.47;31.17;;;9.40;99.90;;;;;;5185966;28;20144;-72
2022/04/26 04:29:06;;;;;;;49.10;29.20;;;9.50;99.90;;;;;;5203657;28;20984;-72
2022/04/26 04:31:39;;;;;;;64.03;33.05;;;9.50;99.90;;;;;;5211065;28;20547;-72
2022/04/26 04:34:11;;;;;;;66.35;33.88;;;9.50;99.90;;;;;;5183840;28;20078;-73
2022/04/26 04:36:44;;;;;;;69.85;35.20;;;9.60;99.90;;;;;;5211311;28;20053;-71
2022/04/26 04:39:20;;;;;;;101.33;40.67;;;9.60;99.90;;;;;;5211415;28;20512;-72
2022/04/26 04:41:53;;;;;;;78.53;37.65;;;9.50;99.90;;;;;;5218616;28;20370;-73
2022/04/26 04:44:26;;;;;;;55.67;31.52;;;9.40;99.90;;;;;;5218202;28;20052;-72
2022/04/26 04:47:00;;;;;;;55.17;31.02;;;9.50;99.90;;;;;;5201522;28;20060;-72
2022/04/26 04:49:33;;;;;;;50.72;29.25;;;9.50;99.90;;;;;;5209117;28;20045;-71
2022/04/26 04:52:06;;;;;;;49.50;29.00;;;9.50;99.90;;;;;;5218973;28;20045;-72
2022/04/26 04:54:38;;;;;;;63.83;33.67;;;9.50;99.90;;;;;;5208527;28;20519;-71
2022/04/26 04:57:11;;;;;;;46.92;26.73;;;9.50;99.90;;;;;;5210432;28;20550;-71
2022/04/26 04:59:43;;;;;;;53.45;29.88;;;9.50;99.90;;;;;;5209146;28;20049;-71
2022/04/26 05:02:15;;;;;;;82.45;38.17;;;9.40;99.90;;;;;;5189027;28;20464;-73
2022/04/26 05:04:49;;;;;;;69.78;33.72;;;9.50;99.90;;;;;;5194392;28;20417;-72
2022/04/26 05:07:21;;;;;;;62.05;31.08;;;9.50;99.90;;;;;;5209321;28;20406;-72
2022/04/26 05:09:53;;;;;;;43.17;26.08;;;9.50;99.90;;;;;;5208819;28;20049;-73
2022/04/26 05:12:26;;;;;;;39.63;25.38;;;9.50;99.90;;;;;;5181636;28;20049;-72
2022/04/26 05:14:59;;;;;;;43.97;25.73;;;9.60;99.90;;;;;;5195181;28;20043;-73
2022/04/26 05:17:31;;;;;;;43.25;25.63;;;9.60;99.90;;;;;;5194964;28;20055;-73
2022/04/26 05:20:06;;;;;;;46.97;27.25;;;9.70;99.90;;;;;;5201305;28;20135;-73
2022/04/26 05:25:37;;;;;;;43.03;25.67;;;9.80;99.90;;;;;;5200031;28;20040;-73
2022/04/26 05:28:10;;;;;;;40.38;24.35;;;9.80;99.90;;;;;;5214985;28;20049;-72
2022/04/26 05:30:43;;;;;;;42.40;25.25;;;9.80;99.90;;;;;;5191674;28;20048;-74
2022/04/26 05:33:15;;;;;;;44.20;26.35;;;9.90;99.90;;;;;;5198027;28;20405;-73
2022/04/26 05:35:48;;;;;;;42.78;24.80;;;10.00;99.90;;;;;;5199523;28;20074;-72
2022/04/26 05:38:21;;;;;;;41.60;25.10;;;10.10;99.90;;;;;;5197864;28;20052;-73
2022/04/26 05:40:53;;;;;;;40.15;24.60;;;10.00;99.90;;;;;;5208440;28;20107;-73
2022/04/26 05:43:25;;;;;;;45.25;26.70;;;10.00;99.90;;;;;;5212030;28;20053;-74
2022/04/26 05:45:58;;;;;;;41.95;25.42;;;10.00;99.90;;;;;;5210683;28;20045;-74
2022/04/26 05:48:30;;;;;;;36.97;23.70;;;10.10;99.90;;;;;;5213632;28;20504;-74
2022/04/26 05:51:03;;;;;;;40.75;24.02;;;10.00;99.90;;;;;;5216024;28;20436;-74
2022/04/26 05:53:36;;;;;;;39.05;24.13;;;10.10;99.90;;;;;;5213775;28;20096;-73
2022/04/26 05:56:10;;;;;;;35.78;22.73;;;10.00;99.90;;;;;;5215061;28;20045;-74
2022/04/26 05:58:43;;;;;;;42.55;26.40;;;10.10;99.90;;;;;;5214677;28;20072;-73
2022/04/26 06:01:16;;;;;;;42.05;25.30;;;10.10;99.90;;;;;;5210532;28;20060;-74
2022/04/26 06:03:48;;;;;;;40.35;23.35;;;10.10;99.90;;;;;;5212951;28;20049;-74
2022/04/26 06:06:20;;;;;;;46.70;27.73;;;10.10;99.90;;;;;;5214646;28;20060;-75
2022/04/26 06:08:53;;;;;;;45.47;26.90;;;10.20;99.90;;;;;;5215264;28;20049;-75
2022/04/26 06:11:25;;;;;;;43.97;27.63;;;10.20;99.90;;;;;;5214005;28;20068;-76
2022/04/26 06:13:58;;;;;;;52.03;29.63;;;10.20;99.90;;;;;;5223458;22;20068;-70
2022/04/26 06:16:32;;;;;;;60.28;31.60;;;10.20;99.90;;;;;;5187468;28;20030;-70
2022/04/26 06:19:05;;;;;;;52.78;30.25;;;10.20;99.90;;;;;;5189686;28;20049;-72
2022/04/26 06:21:37;;;;;;;41.95;26.30;;;10.20;99.90;;;;;;5189172;28;20449;-70
2022/04/26 06:24:09;;;;;;;51.13;29.13;;;10.30;99.90;;;;;;5188314;28;20382;-72
2022/04/26 06:26:42;;;;;;;52.50;29.77;;;10.30;99.90;;;;;;5194832;28;20668;-72
2022/04/26 06:29:14;;;;;;;42.53;27.02;;;10.30;99.90;;;;;;5180616;28;20623;-72
2022/04/26 06:31:46;;;;;;;45.42;26.58;;;10.30;99.90;;;;;;5183099;28;20164;-72
2022/04/26 06:34:20;;;;;;;45.03;27.17;;;10.40;99.90;;;;;;5181791;28;20046;-71
2022/04/26 06:36:53;;;;;;;48.63;28.85;;;10.40;99.90;;;;;;5180865;28;20073;-72
2022/04/26 06:39:25;;;;;;;44.30;25.98;;;10.50;99.90;;;;;;5182227;28;20049;-71
2022/04/26 06:41:58;;;;;;;41.40;26.48;;;10.50;99.90;;;;;;5181724;28;20531;-72
2022/04/26 06:44:31;;;;;;;36.42;23.10;;;10.50;99.90;;;;;;5192717;28;20434;-73
2022/04/26 06:47:06;;;;;;;48.80;29.13;;;10.60;99.90;;;;;;5181427;28;20049;-71
2022/04/26 06:49:38;;;;;;;49.65;28.73;;;10.60;99.90;;;;;;5181564;28;20042;-72
2022/04/26 06:52:11;;;;;;;45.25;26.25;;;10.60;99.90;;;;;;5181118;28;20046;-71
2022/04/26 06:54:45;;;;;;;52.75;29.05;;;10.70;99.90;;;;;;5182269;28;20057;-73
2022/04/26 06:57:18;;;;;;;30.58;17.33;;;10.80;99.90;;;;;;5180781;28;20049;-73
2022/04/26 06:59:50;;;;;;;23.55;15.32;;;10.80;99.90;;;;;;5179237;28;20061;-71
2022/04/26 07:02:22;;;;;;;21.67;14.65;;;10.70;99.90;;;;;;5189820;28;20052;-72
2022/04/26 07:04:56;;;;;;;18.75;12.93;;;10.80;99.90;;;;;;5182212;28;20052;-72
2022/04/26 07:07:29;;;;;;;21.33;14.05;;;10.90;99.90;;;;;;5181028;28;20057;-72
2022/04/26 07:10:01;;;;;;;13.07;9.23;;;10.90;99.90;;;;;;5177805;28;20068;-72
2022/04/26 07:12:34;;;;;;;11.85;9.00;;;11.00;99.90;;;;;;5180827;28;20401;-72
2022/04/26 07:15:06;;;;;;;13.40;8.57;;;11.10;99.90;;;;;;5178171;28;20050;-70
2022/04/26 07:17:40;;;;;;;15.05;10.15;;;11.10;99.90;;;;;;5180702;28;20042;-72
2022/04/26 07:20:12;;;;;;;12.68;8.90;;;11.10;99.90;;;;;;5179190;28;20052;-72
2022/04/26 07:22:45;;;;;;;9.32;6.97;;;11.20;99.90;;;;;;5180669;28;20065;-72
2022/04/26 07:25:18;;;;;;;11.25;8.27;;;11.20;99.90;;;;;;5190044;28;20054;-71
2022/04/26 07:27:50;;;;;;;11.77;8.63;;;11.30;99.90;;;;;;5178918;28;20050;-72
2022/04/26 07:30:23;;;;;;;11.25;8.55;;;11.30;99.90;;;;;;5176880;28;20042;-71
2022/04/26 07:35:46;;;;;;;8.18;6.57;;;11.40;99.90;;;;;;5178767;28;20046;-72
2022/04/26 07:38:19;;;;;;;12.55;7.30;;;11.50;99.90;;;;;;5175869;28;20038;-70
2022/04/26 07:40:51;;;;;;;10.65;7.53;;;11.60;99.90;;;;;;5178621;28;20050;-72
2022/04/26 07:43:23;;;;;;;10.65;7.60;;;11.90;99.90;;;;;;5178207;28;20821;-72
2022/04/26 07:45:56;;;;;;;8.77;6.95;;;12.10;99.90;;;;;;5178300;28;20061;-72
2022/04/26 07:48:28;;;;;;;7.75;6.28;;;12.30;99.90;;;;;;5178896;28;20280;-69
2022/04/26 07:51:03;;;;;;;9.50;7.20;;;12.30;99.90;;;;;;5177743;28;20057;-72
2022/04/26 07:53:36;;;;;;;9.77;7.15;;;12.50;99.90;;;;;;5189490;28;20053;-72
2022/04/26 07:56:09;;;;;;;8.43;6.53;;;12.60;99.90;;;;;;5178143;28;20041;-70
2022/04/26 07:58:46;;;;;;;10.18;7.05;;;12.60;99.90;;;;;;5177998;28;20050;-72
2022/04/26 08:01:18;;;;;;;9.35;7.20;;;12.60;99.90;;;;;;5180276;28;20289;-71
2022/04/26 08:03:51;;;;;;;8.93;6.75;;;12.60;99.90;;;;;;5176517;28;20072;-72
2022/04/26 08:06:25;;;;;;;8.68;6.40;;;12.60;99.90;;;;;;5177992;28;20050;-72
2022/04/26 08:08:58;;;;;;;8.98;6.93;;;12.60;99.90;;;;;;5176467;28;20516;-72
2022/04/26 08:11:30;;;;;;;10.23;7.38;;;12.50;99.90;;;;;;5176665;28;20057;-70
2022/04/26 08:14:03;;;;;;;10.40;7.50;;;12.50;99.90;;;;;;5176846;28;20060;-72
2022/04/26 08:16:35;;;;;;;16.85;9.00;;;12.40;99.90;;;;;;5176608;28;20564;-72
2022/04/26 08:19:10;;;;;;;13.23;7.72;;;12.30;99.90;;;;;;5175356;28;20050;-70
2022/04/26 08:21:43;;;;;;;9.65;7.45;;;12.50;99.90;;;;;;5175862;28;20045;-71
2022/04/26 08:27:25;;;;;;;7.80;6.20;;;12.40;99.90;;;;;;5176200;28;20046;-69
2022/04/26 08:29:58;;;;;;;9.52;6.30;;;12.30;99.90;;;;;;5175443;28;20053;-69
2022/04/26 08:32:41;;;;;;;9.32;6.35;;;12.40;99.90;;;;;;5176015;28;20046;-71
2022/04/26 08:35:16;;;;;;;9.60;5.80;;;12.30;99.90;;;;;;5175211;28;21246;-71
2022/04/26 08:37:48;;;;;;;9.93;5.10;;;12.30;99.90;;;;;;5180286;28;20042;-71
2022/04/26 08:40:21;;;;;;;6.70;4.90;;;12.20;99.90;;;;;;5176590;28;20045;-71
2022/04/26 08:42:54;;;;;;;7.43;5.45;;;12.00;99.90;;;;;;5181100;28;20042;-72
2022/04/26 08:45:26;;;;;;;7.40;5.35;;;11.90;99.90;;;;;;5190145;28;20041;-69
2022/04/26 08:51:05;;;;;;;9.50;6.72;;;11.80;99.90;;;;;;5209783;28;20045;-70
2022/04/26 08:53:38;;;;;;;8.05;5.40;;;11.80;99.90;;;;;;5209819;28;20404;-72
2022/04/26 08:56:11;;;;;;;10.27;6.78;;;11.80;99.90;;;;;;5207580;28;20511;-72
2022/04/26 08:58:43;;;;;;;7.60;5.53;;;11.90;99.90;;;;;;5205151;28;20037;-72
2022/04/26 09:01:24;;;;;;;8.00;5.38;;;12.00;99.90;;;;;;5206837;28;20063;-69
2022/04/26 09:03:59;;;;;;;8.48;6.15;;;12.10;99.90;;;;;;5207439;28;20059;-71
2022/04/26 09:06:39;;;;;;;7.70;5.80;;;12.00;99.90;;;;;;5202029;28;20049;-73
2022/04/26 09:09:21;;;;;;;5.75;4.70;;;12.00;99.90;;;;;;5207950;28;20057;-72
2022/04/26 09:12:00;;;;;;;6.72;5.32;;;11.90;99.90;;;;;;5206856;28;20045;-72
2022/04/26 09:14:36;;;;;;;8.00;5.85;;;11.90;99.90;;;;;;5208751;28;20045;-72
2022/04/26 09:17:12;;;;;;;9.18;6.88;;;11.90;99.90;;;;;;5209420;28;20052;-70
2022/04/26 09:19:49;;;;;;;9.65;5.93;;;12.00;99.90;;;;;;5189517;28;20268;-72
2022/04/26 09:22:29;;;;;;;8.02;5.80;;;12.00;99.90;;;;;;5206457;28;20493;-71
2022/04/26 09:25:06;;;;;;;6.75;5.43;;;12.10;99.90;;;;;;5207736;28;20053;-72
2022/04/26 09:27:41;;;;;;;6.40;4.63;;;12.10;99.90;;;;;;5179524;28;20060;-70
2022/04/26 09:30:14;;;;;;;6.45;4.88;;;11.90;99.90;;;;;;5206585;28;20037;-72
2022/04/26 09:32:49;;;;;;;5.05;3.90;;;11.90;99.90;;;;;;5187581;28;20084;-71
2022/04/26 09:35:23;;;;;;;5.13;4.15;;;11.90;99.90;;;;;;5187452;28;20041;-71
2022/04/26 09:37:56;;;;;;;6.22;4.90;;;11.80;99.90;;;;;;5208880;28;20729;-72
2022/04/26 09:40:32;;;;;;;7.22;4.78;;;11.80;99.90;;;;;;5205314;28;20036;-72
2022/04/26 09:43:16;;;;;;;7.22;4.88;;;11.80;99.90;;;;;;5207016;28;20072;-72
2022/04/26 09:45:55;;;;;;;7.30;4.95;;;11.80;99.90;;;;;;5203270;28;20493;-72
2022/04/26 09:48:32;;;;;;;7.13;5.25;;;11.70;99.90;;;;;;5206169;28;20045;-71
2022/04/26 09:51:06;;;;;;;5.13;4.03;;;11.70;99.90;;;;;;5207952;28;20041;-71
2022/04/26 09:53:38;;;;;;;7.30;4.88;;;11.70;99.90;;;;;;5207648;28;20045;-72
2022/04/26 09:56:13;;;;;;;6.55;4.93;;;11.70;99.90;;;;;;5204690;28;20044;-72
2022/04/26 09:58:57;;;;;;;7.13;5.32;;;11.70;99.90;;;;;;5206206;28;20044;-72
2022/04/26 10:01:34;;;;;;;6.55;4.93;;;11.50;99.90;;;;;;5204360;28;20500;-72
2022/04/26 10:04:09;;;;;;;8.48;5.75;;;11.40;99.90;;;;;;5207511;28;20057;-72
2022/04/26 10:06:43;;;;;;;8.77;5.38;;;11.20;99.90;;;;;;5207254;28;20300;-71
2022/04/26 10:09:16;;;;;;;8.35;5.68;;;11.20;99.90;;;;;;5205528;28;20052;-72
2022/04/26 10:11:49;;;;;;;10.98;6.72;;;11.20;99.90;;;;;;5202885;28;20540;-71
2022/04/26 10:14:22;;;;;;;8.93;6.85;;;11.10;99.90;;;;;;5203215;28;20112;-72
2022/04/26 10:16:55;;;;;;;9.15;6.35;;;11.00;99.90;;;;;;5205589;28;20053;-72
2022/04/26 10:19:42;;;;;;;17.10;8.40;;;10.90;99.90;;;;;;5206549;28;20045;-72
2022/04/26 10:22:17;;;;;;;10.38;6.70;;;10.90;99.90;;;;;;5201798;28;20621;-72
2022/04/26 10:25:11;;;;;;;13.27;7.20;;;10.90;99.90;;;;;;5205392;28;20041;-70
2022/04/26 10:27:46;;;;;;;13.15;7.40;;;10.80;99.90;;;;;;5206038;28;20076;-72
2022/04/26 10:30:51;;;;;;;11.95;7.57;;;10.80;99.90;;;;;;5201297;28;20064;-71
2022/04/26 10:33:38;;;;;;;8.45;5.50;;;10.90;99.90;;;;;;5203843;28;20390;-70
2022/04/26 10:36:19;;;;;;;8.25;5.55;;;10.90;99.90;;;;;;5205834;28;20045;-72
2022/04/26 10:39:14;;;;;;;12.30;6.63;;;10.80;99.90;;;;;;5203208;28;20053;-72
2022/04/26 10:41:47;;;;;;;8.07;4.82;;;10.90;99.90;;;;;;5203324;28;20052;-72
2022/04/26 10:44:22;;;;;;;9.13;4.40;;;10.80;99.90;;;;;;5205451;28;20053;-72
2022/04/26 10:46:59;;;;;;;4.68;3.67;;;10.80;99.90;;;;;;5205242;28;20056;-72
2022/04/26 10:49:43;;;;;;;6.30;3.83;;;10.90;99.90;;;;;;5204531;28;20049;-72
2022/04/26 10:52:19;;;;;;;6.00;3.65;;;10.90;99.90;;;;;;5202614;28;20053;-72
2022/04/26 10:54:53;;;;;;;5.32;3.53;;;10.90;99.90;;;;;;5202000;28;20129;-71
2022/04/26 10:57:26;;;;;;;;;;;11.00;99.90;;;;;;5206061;28;20048;-72
2022/04/26 11:00:19;;;;;;;4.40;3.20;;;10.90;99.90;;;;;;5201280;28;20272;-72
2022/04/26 11:02:51;;;;;;;4.55;3.22;;;10.90;99.90;;;;;;5203332;28;20045;-71
2022/04/26 11:05:26;;;;;;;6.35;3.40;;;10.90;99.90;;;;;;5201797;28;20519;-70
2022/04/26 11:07:58;;;;;;;6.57;3.15;;;10.90;99.90;;;;;;5203396;28;20116;-72
2022/04/26 11:11:00;;;;;;;6.55;3.15;;;10.80;99.90;;;;;;5200622;28;20048;-73
2022/04/26 11:13:33;;;;;;;7.10;3.22;;;10.70;99.90;;;;;;5204172;28;20513;-72
2022/04/26 11:16:12;;;;;;;5.47;3.47;;;10.70;99.90;;;;;;5204341;28;20053;-70
2022/04/26 11:18:45;;;;;;;4.13;3.28;;;10.60;99.90;;;;;;5178811;28;20044;-71
2022/04/26 11:21:19;;;;;;;5.47;3.97;;;10.50;99.90;;;;;;5180252;28;20048;-72
2022/04/26 11:29:42;;;;;;;6.68;3.97;;;10.40;99.90;;;;;;5188463;28;20048;-72
2022/04/26 11:32:31;;;;;;;8.18;5.50;;;10.30;99.90;;;;;;5190381;28;20044;-72
2022/04/26 11:35:04;;;;;;;15.02;7.93;;;10.20;99.90;;;;;;5181709;28;20045;-71
2022/04/26 11:37:47;;;;;;;9.25;5.47;;;10.10;99.90;;;;;;5195304;28;20050;-74
2022/04/26 11:40:36;;;;;;;12.85;5.53;;;9.80;99.90;;;;;;5198463;28;20049;-71
2022/04/26 11:43:17;;;;;;;7.35;4.53;;;9.50;99.90;;;;;;5183880;28;20037;-72
2022/04/26 11:45:51;;;;;;;9.18;4.43;;;9.30;99.90;;;;;;5191406;28;20556;-71
2022/04/26 11:48:29;;;;;;;5.65;4.00;;;9.00;99.90;;;;;;5190939;28;20045;-72
2022/04/26 11:51:02;;;;;;;7.80;4.88;;;8.90;99.90;;;;;;5191448;28;20049;-71
2022/04/26 11:53:37;;;;;;;8.07;5.03;;;8.80;99.90;;;;;;5186086;28;20076;-71
2022/04/26 11:56:10;;;;;;;8.02;4.00;;;8.70;99.90;;;;;;5193919;28;20052;-71
2022/04/26 11:58:42;;;;;;;5.28;3.83;;;8.50;99.90;;;;;;5200333;28;20056;-72
2022/04/26 12:01:16;;;;;;;22.20;5.22;;;8.40;99.90;;;;;;5198027;28;20591;-73
2022/04/26 12:03:52;;;;;;;11.02;5.47;;;8.40;99.90;;;;;;5197390;28;20049;-73
2022/04/26 12:06:26;;;;;;;6.47;4.38;;;8.40;99.90;;;;;;5191623;28;20052;-73
2022/04/26 12:09:02;;;;;;;9.15;4.25;;;8.50;99.90;;;;;;5191883;28;20040;-72
2022/04/26 12:11:36;;;;;;;10.63;4.65;;;8.40;99.90;;;;;;5194698;28;20054;-72
2022/04/26 12:14:11;;;;;;;8.73;4.43;;;8.40;99.90;;;;;;5204567;23;20041;-73
2022/04/26 12:16:48;;;;;;;14.25;5.20;;;8.40;99.90;;;;;;5182149;28;20053;-73
2022/04/26 12:19:34;;;;;;;7.85;4.50;;;8.30;99.90;;;;;;5201854;28;20053;-73
2022/04/26 12:22:07;;;;;;;6.45;4.93;;;8.20;99.90;;;;;;5190135;28;20705;-71
2022/04/26 12:24:51;;;;;;;9.27;4.90;;;8.10;99.90;;;;;;5170711;28;20056;-73
2022/04/26 12:27:25;;;;;;;5.82;4.20;;;8.00;99.90;;;;;;5190809;28;20519;-73
2022/04/26 12:29:58;;;;;;;8.05;5.10;;;7.90;99.90;;;;;;5177870;28;20052;-73
2022/04/26 12:32:40;;;;;;;9.10;5.50;;;7.90;99.90;;;;;;5182758;28;20052;-73
2022/04/26 12:35:14;;;;;;;14.80;6.35;;;8.00;99.90;;;;;;5175968;28;20065;-74
2022/04/26 12:37:47;;;;;;;12.93;6.25;;;8.00;99.90;;;;;;5190079;28;20056;-74
2022/04/26 12:40:19;;;;;;;11.10;5.15;;;8.00;99.90;;;;;;5178175;28;20041;-74
2022/04/26 12:42:55;;;;;;;7.53;5.40;;;8.00;99.90;;;;;;5183941;28;20497;-74
2022/04/26 12:45:28;;;;;;;15.02;6.97;;;8.10;99.90;;;;;;5189708;28;20049;-74
2022/04/26 12:51:20;;;;;;;13.35;7.13;;;8.30;99.90;;;;;;5175776;28;19955;-73
2022/04/26 12:54:08;;;;;;;11.40;6.28;;;8.50;99.90;;;;;;5172930;28;20064;-74
2022/04/26 12:56:59;;;;;;;10.77;6.20;;;8.50;99.90;;;;;;5149925;28;20048;-74
2022/04/26 12:59:35;;;;;;;10.38;5.43;;;8.40;99.90;;;;;;5194906;28;20037;-73
2022/04/26 13:02:09;;;;;;;8.32;5.40;;;8.30;99.90;;;;;;5163439;28;20047;-74
2022/04/26 13:04:42;;;;;;;6.97;3.92;;;8.30;99.90;;;;;;5187259;28;20037;-74
2022/04/26 13:07:15;;;;;;;;;;;8.30;99.90;;;;;;5185412;28;20046;-74
2022/04/26 13:09:48;;;;;;;7.20;4.68;;;8.20;99.90;;;;;;5181664;28;19921;-74
2022/04/26 13:12:21;;;;;;;8.00;4.82;;;8.20;99.90;;;;;;5198865;28;20041;-72
2022/04/26 13:14:54;;;;;;;5.22;3.92;;;8.10;99.90;;;;;;5181471;28;20049;-74
2022/04/26 13:17:27;;;;;;;5.07;3.60;;;8.10;99.90;;;;;;5186040;28;20059;-74
2022/04/26 13:20:01;;;;;;;6.18;3.40;;;8.00;99.90;;;;;;5179632;28;20513;-73
2022/04/26 13:22:35;;;;;;;7.60;4.22;;;8.00;99.90;;;;;;5195209;28;20933;-73
2022/04/26 13:25:09;;;;;;;4.30;2.70;;;7.90;99.90;;;;;;5188537;28;20049;-73
2022/04/26 13:27:41;;;;;;;3.25;2.80;;;7.90;99.90;;;;;;5186698;28;20057;-73
2022/04/26 13:30:15;;;;;;;3.67;3.00;;;7.80;99.90;;;;;;5195068;28;20498;-72
2022/04/26 13:32:48;;;;;;;3.83;2.53;;;7.80;99.90;;;;;;5185186;28;20318;-73
2022/04/26 13:35:21;;;;;;;6.38;3.67;;;7.70;99.90;;;;;;5179937;28;20041;-72
2022/04/26 13:38:01;;;;;;;5.72;2.42;;;7.80;99.90;;;;;;5190230;28;20049;-72
2022/04/26 13:40:34;;;;;;;2.55;2.08;;;7.90;99.90;;;;;;5186431;28;20789;-73
2022/04/26 13:43:07;;;;;;;2.90;2.10;;;8.10;99.90;;;;;;5188374;28;20071;-72
2022/04/26 13:45:40;;;;;;;;;;;8.30;99.90;;;;;;5180680;28;20565;-73
2022/04/26 13:48:16;;;;;;;5.55;2.55;;;8.50;99.90;;;;;;5188462;28;20518;-73
2022/04/26 13:50:48;;;;;;;2.60;1.98;;;8.80;99.90;;;;;;5184345;28;20064;-72
2022/04/26 13:53:20;;;;;;;4.25;2.33;;;8.70;99.90;;;;;;5195215;28;20052;-72
2022/04/26 13:55:53;;;;;;;4.68;2.55;;;8.70;99.90;;;;;;5188239;28;20072;-73
2022/04/26 13:58:25;;;;;;;2.33;2.00;;;8.80;99.90;;;;;;5186703;28;20061;-73
2022/04/26 14:00:58;;;;;;;2.65;1.80;;;8.70;99.90;;;;;;5188970;28;20488;-73
2022/04/26 14:03:31;;;;;;;2.67;1.87;;;8.70;99.90;;;;;;5184498;28;20408;-73
2022/04/26 14:06:04;;;;;;;3.20;2.03;;;8.60;99.90;;;;;;5184889;28;20081;-73
2022/04/26 14:08:37;;;;;;;3.78;2.67;;;8.50;99.90;;;;;;5183128;28;22062;-72
2022/04/26 14:11:10;;;;;;;2.10;1.85;;;8.60;99.90;;;;;;5186405;28;20049;-73
2022/04/26 14:22:32;;;;;;;3.63;2.30;;;8.70;99.90;;;;;;5179265;28;20061;-72
2022/04/26 14:25:08;;;;;;;4.35;2.53;;;8.60;99.90;;;;;;5182114;28;21127;-74
2022/04/26 14:27:42;;;;;;;3.53;2.05;;;8.50;99.90;;;;;;5190853;28;20052;-73
2022/04/26 14:30:16;;;;;;;3.20;2.10;;;8.40;99.90;;;;;;5187043;28;20042;-73
2022/04/26 14:33:08;;;;;;;3.03;2.13;;;8.30;99.90;;;;;;5185637;28;20489;-74
2022/04/26 14:35:41;;;;;;;3.63;2.57;;;8.20;99.90;;;;;;5184086;28;20906;-73
2022/04/26 14:38:14;;;;;;;3.65;2.50;;;8.10;99.90;;;;;;5182284;28;20045;-73
2022/04/26 14:40:47;;;;;;;5.03;3.55;;;8.10;99.90;;;;;;5182567;28;20049;-73
2022/04/26 14:43:20;;;;;;;3.92;2.75;;;8.10;99.90;;;;;;5183358;28;20049;-73
2022/04/26 14:45:55;;;;;;;4.73;2.10;;;8.10;99.90;;;;;;5170034;28;20053;-73
2022/04/26 14:48:29;;;;;;;6.85;3.22;;;8.20;99.90;;;;;;5177474;28;20052;-72
2022/04/26 14:51:02;;;;;;;4.32;3.00;;;8.30;99.90;;;;;;5179328;28;20045;-73
2022/04/26 14:53:34;;;;;;;8.27;5.10;;;8.30;99.90;;;;;;5194501;28;20053;-73
2022/04/26 14:56:09;;;;;;;8.65;4.93;;;8.40;99.90;;;;;;5181769;28;20413;-73
2022/04/26 14:59:03;;;;;;;7.10;4.80;;;8.40;99.90;;;;;;5173821;28;20074;-72
2022/04/26 15:01:45;;;;;;;4.78;3.30;;;8.30;99.90;;;;;;5170830;28;20068;-73
2022/04/26 15:04:22;;;;;;;10.65;5.00;;;8.30;99.90;;;;;;5176575;28;20492;-73
2022/04/26 15:06:55;;;;;;;6.50;4.03;;;8.20;99.90;;;;;;5166700;23;20061;-72
2022/04/26 15:09:43;;;;;;;5.72;3.90;;;8.10;99.90;;;;;;5140396;28;20053;-73
2022/04/26 15:17:58;;;;;;;7.28;4.63;;;8.40;99.90;;;;;;5154144;28;20482;-74
2022/04/26 15:20:31;;;;;;;9.80;5.50;;;8.50;99.90;;;;;;5103896;28;20049;-73
2022/04/26 15:23:04;;;;;;;9.85;5.63;;;8.50;99.90;;;;;;5120172;28;20053;-74
2022/04/26 15:25:40;;;;;;;9.23;4.93;;;8.70;99.90;;;;;;5136770;28;20054;-74
2022/04/26 15:28:12;;;;;;;8.13;5.85;;;8.80;99.90;;;;;;5137175;28;20054;-73
2022/04/26 15:30:45;;;;;;;9.65;5.57;;;8.90;99.90;;;;;;5140569;28;20393;-75
2022/04/26 15:33:19;;;;;;;9.05;6.35;;;9.00;99.90;;;;;;5124254;28;20043;-74
2022/04/26 15:35:52;;;;;;;12.18;6.65;;;9.00;99.90;;;;;;5120578;28;20062;-72
2022/04/26 15:38:28;;;;;;;10.43;6.97;;;9.10;99.90;;;;;;5133285;28;20050;-75
2022/04/26 15:41:01;;;;;;;7.53;5.30;;;9.00;99.90;;;;;;5126640;28;20353;-75
2022/04/26 15:43:35;;;;;;;10.55;6.80;;;9.00;99.90;;;;;;5134194;28;20507;-77
2022/04/26 15:46:25;;;;;;;10.52;6.50;;;8.90;99.90;;;;;;5122276;28;20058;-75
2022/04/26 15:49:03;;;;;;;10.43;6.80;;;8.90;99.90;;;;;;5151369;28;21166;-75
2022/04/26 15:51:35;;;;;;;11.98;7.00;;;9.00;99.90;;;;;;5159562;28;20058;-75
2022/04/26 15:54:08;;;;;;;7.35;5.32;;;9.10;99.90;;;;;;5152840;28;20346;-73
2022/04/26 15:56:42;;;;;;;10.77;7.13;;;9.20;99.90;;;;;;5172016;28;20494;-74
2022/04/26 15:59:14;;;;;;;7.63;5.35;;;9.50;99.90;;;;;;5151995;28;20047;-73
2022/04/26 16:01:46;;;;;;;8.00;6.47;;;9.80;99.90;;;;;;5169428;28;20057;-74
2022/04/26 16:04:19;;;;;;;10.53;6.30;;;10.00;99.90;;;;;;5154232;28;20150;-75
2022/04/26 16:06:52;;;;;;;7.53;5.60;;;10.10;99.90;;;;;;5145959;28;20061;-73
2022/04/26 16:20:53;;;;;;;14.23;7.45;;;10.40;99.90;;;;;;5141883;28;20042;-74
2022/04/26 16:23:25;;;;;;;9.50;6.03;;;10.40;99.90;;;;;;5148049;28;20063;-74
2022/04/26 16:26:06;;;;;;;11.35;6.70;;;10.40;99.90;;;;;;5149085;28;20055;-74
2022/04/26 16:28:38;;;;;;;15.52;6.15;;;10.40;99.90;;;;;;5142211;28;20441;-73
2022/04/26 16:31:11;;;;;;;9.32;6.38;;;10.30;99.90;;;;;;5132884;28;21058;-75
2022/04/26 16:33:43;;;;;;;12.00;7.20;;;10.30;99.90;;;;;;5138728;28;20054;-72
2022/04/26 16:36:17;;;;;;;11.93;7.20;;;10.30;99.90;;;;;;5123351;28;20051;-74
2022/04/26 16:38:50;;;;;;;10.75;7.78;;;10.20;99.90;;;;;;5120319;28;20580;-74
2022/04/26 16:41:23;;;;;;;10.68;6.85;;;10.20;99.90;;;;;;5122514;28;21863;-75
2022/04/26 16:43:55;;;;;;;8.88;6.30;;;10.50;99.90;;;;;;5124148;28;20069;-75
2022/04/26 16:46:30;;;;;;;8.38;5.20;;;10.60;99.90;;;;;;5124495;28;20046;-73
2022/04/26 16:49:03;;;;;;;8.10;6.05;;;10.60;99.90;;;;;;5121725;28;20408;-73
2022/04/26 16:51:36;;;;;;;9.02;5.72;;;10.50;99.90;;;;;;5125436;28;21026;-74
2022/04/26 16:54:11;;;;;;;7.38;5.10;;;10.50;99.90;;;;;;5119067;28;20050;-72
2022/04/26 16:56:49;;;;;;;6.63;5.20;;;10.50;99.90;;;;;;5138196;28;20061;-75
2022/04/26 16:59:23;;;;;;;6.57;5.50;;;10.50;99.90;;;;;;5125182;28;20537;-73
2022/04/26 17:01:56;;;;;;;8.52;5.95;;;10.60;99.90;;;;;;5129308;28;20434;-72
2022/04/26 17:04:31;;;;;;;;;;;10.50;99.90;;;;;;5135471;28;20051;-73
2022/04/26 17:07:03;;;;;;;8.10;5.05;;;10.40;99.90;;;;;;5121365;28;19932;-72
2022/04/26 17:09:37;;;;;;;7.35;5.28;;;10.50;99.90;;;;;;5132233;28;20050;-73
2022/04/26 17:12:12;;;;;;;9.40;6.43;;;10.60;99.90;;;;;;5121418;28;20066;-74
2022/04/26 17:14:45;;;;;;;13.95;6.40;;;10.60;99.90;;;;;;5114552;28;20050;-74
2022/04/26 17:17:18;;;;;;;10.32;6.32;;;10.60;99.90;;;;;;5134297;28;20358;-73
2022/04/26 17:19:50;;;;;;;8.48;6.15;;;10.50;99.90;;;;;;5117497;28;20046;-74
2022/04/26 17:22:23;;;;;;;18.48;11.65;;;10.40;99.90;;;;;;5120068;28;20034;-73
2022/04/26 17:25:14;;;;;;;15.98;8.60;;;10.30;99.90;;;;;;5122000;28;20055;-75
2022/04/26 17:28:10;;;;;;;9.45;7.07;;;10.20;99.90;;;;;;5130628;28;20057;-75
2022/04/26 17:30:42;;;;;;;10.18;7.53;;;10.10;99.90;;;;;;5114230;28;20161;-73
2022/04/26 17:33:16;;;;;;;10.18;7.28;;;9.90;99.90;;;;;;5129422;28;20061;-75
2022/04/26 17:35:48;;;;;;;9.48;7.07;;;9.80;99.90;;;;;;5121775;28;21290;-75
2022/04/26 17:38:21;;;;;;;13.23;7.10;;;9.80;99.90;;;;;;5120981;28;20060;-74
2022/04/26 17:40:54;;;;;;;14.18;8.23;;;9.70;99.90;;;;;;5117052;28;20050;-74
2022/04/26 17:43:26;;;;;;;12.40;7.07;;;9.60;99.90;;;;;;5108192;28;20354;-74
2022/04/26 17:45:59;;;;;;;11.68;7.25;;;9.50;99.90;;;;;;5113699;28;20047;-73
2022/04/26 17:48:32;;;;;;;9.88;7.07;;;9.50;99.90;;;;;;5118305;28;20069;-74
2022/04/26 17:51:05;;;;;;;11.45;7.00;;;9.40;99.90;;;;;;5117521;28;21376;-74